Time;durP1;ratioP1;P1;durP2;ratioP2;P2;SDS_P1;SDS_P2;PMS_P1;PMS_P2;Temp;Humidity;BMP_temperature;BMP_pressure;BME280_temperature;BME280_humidity;BME280_pressure;Samples;Min_cycle;Max_cycle;Signal;HPM_P1;HPM_P2
2022/12/24 00:03:02;;;;;;;11.50;2.30;;;;;;;;;;8262381;28;20876;-77
2022/12/24 00:07:02;;;;;;;12.95;2.50;;;;;;;;;;8264102;28;20026;-75
2022/12/24 00:11:03;;;;;;;10.27;2.35;;;;;;;;;;8273123;28;20135;-76
2022/12/24 00:15:04;;;;;;;11.90;2.95;;;;;;;;;;8267408;28;20029;-77
2022/12/24 00:19:05;;;;;;;12.40;3.38;;;;;;;;;;8266791;28;20036;-76
2022/12/24 00:23:05;;;;;;;8.43;1.97;;;;;;;;;;8267608;28;20104;-76
2022/12/24 00:27:05;;;;;;;11.57;2.60;;;;;;;;;;8267363;28;20279;-76
2022/12/24 00:31:06;;;;;;;13.35;2.15;;;;;;;;;;8268830;28;20914;-77
2022/12/24 00:35:06;;;;;;;11.68;2.20;;;;;;;;;;8268309;28;20063;-76
2022/12/24 00:39:06;;;;;;;11.70;2.72;;;;;;;;;;8268363;28;20142;-76
2022/12/24 00:43:06;;;;;;;7.13;1.88;;;;;;;;;;8267019;28;20037;-76
2022/12/24 00:47:07;;;;;;;10.68;2.33;;;;;;;;;;8268545;28;20060;-77
2022/12/24 00:51:07;;;;;;;12.98;2.00;;;;;;;;;;8267661;28;20022;-77
2022/12/24 00:55:07;;;;;;;12.40;2.00;;;;;;;;;;8264714;28;20029;-76
2022/12/24 00:59:07;;;;;;;15.75;2.22;;;;;;;;;;8266179;28;20141;-77
2022/12/24 01:03:08;;;;;;;9.43;1.98;;;;;;;;;;8266257;28;20038;-76
2022/12/24 01:07:08;;;;;;;13.80;2.85;;;;;;;;;;8269135;28;20052;-76
2022/12/24 01:11:09;;;;;;;12.60;2.40;;;;;;;;;;8275859;28;20087;-76
2022/12/24 01:15:10;;;;;;;11.60;2.50;;;;;;;;;;8264196;28;20062;-77
2022/12/24 01:19:10;;;;;;;11.30;2.40;;;;;;;;;;8268044;28;20052;-76
2022/12/24 01:23:11;;;;;;;10.40;2.35;;;;;;;;;;8267359;28;20029;-76
2022/12/24 01:27:11;;;;;;;14.43;2.40;;;;;;;;;;8273042;28;20049;-76
2022/12/24 01:31:11;;;;;;;13.40;2.38;;;;;;;;;;8288807;28;20257;-76
2022/12/24 01:35:11;;;;;;;14.27;2.47;;;;;;;;;;8270961;28;20025;-77
2022/12/24 01:39:12;;;;;;;15.77;2.88;;;;;;;;;;8273885;28;20029;-77
2022/12/24 01:43:22;;;;;;;10.75;2.20;;;;;;;;;;8275089;28;20049;-76
2022/12/24 01:47:26;;;;;;;16.45;2.95;;;;;;;;;;8273356;28;20037;-76
2022/12/24 01:51:32;;;;;;;10.73;2.05;;;;;;;;;;8274724;28;20124;-76
2022/12/24 01:55:32;;;;;;;15.52;2.03;;;;;;;;;;8273331;28;20038;-75
2022/12/24 01:59:33;;;;;;;11.80;2.42;;;;;;;;;;8275236;28;20658;-76
2022/12/24 02:03:33;;;;;;;13.75;2.47;;;;;;;;;;8272500;28;20045;-76
2022/12/24 02:07:33;;;;;;;13.10;2.60;;;;;;;;;;8271872;28;20025;-76
2022/12/24 02:11:35;;;;;;;14.10;2.78;;;;;;;;;;8273957;28;20025;-77
2022/12/24 02:15:42;;;;;;;13.50;2.33;;;;;;;;;;8271802;28;20155;-77
2022/12/24 02:19:48;;;;;;;10.90;2.22;;;;;;;;;;8271996;28;20028;-76
2022/12/24 02:23:54;;;;;;;10.95;2.25;;;;;;;;;;8271506;28;20025;-77
2022/12/24 02:28:13;;;;;;;11.02;1.90;;;;;;;;;;8271942;28;20021;-77
2022/12/24 02:32:18;;;;;;;11.77;2.13;;;;;;;;;;8271916;28;20033;-75
2022/12/24 02:36:29;;;;;;;12.80;2.35;;;;;;;;;;8271231;28;20048;-76
2022/12/24 02:40:35;;;;;;;12.80;2.78;;;;;;;;;;8271651;28;20564;-76
2022/12/24 02:44:38;;;;;;;11.90;2.42;;;;;;;;;;8276915;28;20064;-76
2022/12/24 02:48:40;;;;;;;11.05;2.42;;;;;;;;;;8270788;28;20625;-76
2022/12/24 02:52:42;;;;;;;10.73;2.72;;;;;;;;;;8272368;28;20117;-76
2022/12/24 02:56:57;;;;;;;15.38;2.35;;;;;;;;;;8273248;28;20814;-76
2022/12/24 03:01:14;;;;;;;10.85;2.10;;;;;;;;;;8269039;28;20544;-76
2022/12/24 03:05:33;;;;;;;13.48;2.40;;;;;;;;;;8269072;28;20466;-76
2022/12/24 03:09:43;;;;;;;10.15;2.55;;;;;;;;;;8271287;28;20032;-76
2022/12/24 03:13:44;;;;;;;10.80;2.20;;;;;;;;;;8270944;28;20025;-76
2022/12/24 03:17:46;;;;;;;9.00;2.10;;;;;;;;;;8277891;28;20180;-76
2022/12/24 03:21:47;;;;;;;10.25;2.60;;;;;;;;;;8268653;28;20578;-76
2022/12/24 03:25:48;;;;;;;12.05;2.67;;;;;;;;;;8269042;28;20063;-76
2022/12/24 03:29:48;;;;;;;12.25;2.33;;;;;;;;;;8286619;28;20025;-77
2022/12/24 03:33:48;;;;;;;13.40;2.50;;;;;;;;;;8271364;28;20044;-76
2022/12/24 03:37:48;;;;;;;15.67;2.97;;;;;;;;;;8271146;28;20030;-77
2022/12/24 03:41:49;;;;;;;17.48;3.05;;;;;;;;;;8267180;28;20284;-76
2022/12/24 03:45:49;;;;;;;14.05;2.42;;;;;;;;;;8269667;28;20034;-77
2022/12/24 03:49:49;;;;;;;14.13;2.67;;;;;;;;;;8268978;28;20041;-77
2022/12/24 03:53:51;;;;;;;15.52;2.65;;;;;;;;;;8268063;28;20504;-77
2022/12/24 03:57:51;;;;;;;13.35;2.78;;;;;;;;;;8275163;28;20083;-76
2022/12/24 04:01:51;;;;;;;19.20;3.08;;;;;;;;;;8269615;28;20066;-76
2022/12/24 04:06:05;;;;;;;14.55;2.25;;;;;;;;;;8269486;28;20041;-77
2022/12/24 04:10:05;;;;;;;15.32;3.20;;;;;;;;;;8284114;28;20026;-77
2022/12/24 04:14:06;;;;;;;16.00;3.30;;;;;;;;;;8266329;28;20368;-77
2022/12/24 04:18:06;;;;;;;16.80;3.23;;;;;;;;;;8268860;28;20030;-76
2022/12/24 04:22:06;;;;;;;21.27;3.30;;;;;;;;;;8267818;28;20022;-77
2022/12/24 04:26:07;;;;;;;18.42;3.80;;;;;;;;;;8284026;28;20022;-77
2022/12/24 04:30:08;;;;;;;12.85;2.83;;;;;;;;;;8269464;28;20071;-76
2022/12/24 04:34:08;;;;;;;21.27;3.88;;;;;;;;;;8268839;28;20017;-76
2022/12/24 04:38:09;;;;;;;23.55;3.83;;;;;;;;;;8266733;28;20040;-76
2022/12/24 04:42:09;;;;;;;19.52;3.75;;;;;;;;;;8267527;28;20057;-76
2022/12/24 04:46:11;;;;;;;16.38;3.10;;;;;;;;;;8267129;28;20030;-76
2022/12/24 04:50:11;;;;;;;20.17;3.60;;;;;;;;;;8270704;28;20031;-76
2022/12/24 04:54:11;;;;;;;13.80;3.40;;;;;;;;;;8269334;28;20024;-76
2022/12/24 04:58:12;;;;;;;16.83;3.13;;;;;;;;;;8266673;28;20018;-77
2022/12/24 05:02:12;;;;;;;17.58;3.25;;;;;;;;;;8265323;28;20045;-76
2022/12/24 05:06:14;;;;;;;17.88;3.78;;;;;;;;;;8268152;28;20028;-76
2022/12/24 05:10:14;;;;;;;18.73;3.20;;;;;;;;;;8268563;28;20021;-77
2022/12/24 05:14:14;;;;;;;17.80;3.40;;;;;;;;;;8268815;28;20537;-76
2022/12/24 05:18:14;;;;;;;18.17;3.55;;;;;;;;;;8266873;28;20949;-76
2022/12/24 05:26:53;;;;;;;16.55;2.85;;;;;;;;;;8266531;28;20044;-76
2022/12/24 05:30:53;;;;;;;16.73;3.25;;;;;;;;;;8267677;28;20140;-76
2022/12/24 05:34:53;;;;;;;21.20;3.40;;;;;;;;;;8266406;28;20049;-76
2022/12/24 05:38:53;;;;;;;15.85;3.35;;;;;;;;;;8268348;28;20017;-77
2022/12/24 05:42:53;;;;;;;20.45;3.15;;;;;;;;;;8266636;28;20022;-76
2022/12/24 05:46:54;;;;;;;20.87;3.27;;;;;;;;;;8265926;28;20034;-76
2022/12/24 05:50:54;;;;;;;24.02;4.18;;;;;;;;;;8266986;28;20021;-76
2022/12/24 05:54:54;;;;;;;23.80;3.72;;;;;;;;;;8267400;28;20057;-76
2022/12/24 05:58:55;;;;;;;16.52;3.33;;;;;;;;;;8267310;28;20109;-76
2022/12/24 06:02:55;;;;;;;19.42;3.25;;;;;;;;;;8263819;28;20752;-76
2022/12/24 06:06:55;;;;;;;23.75;3.38;;;;;;;;;;8280545;28;20132;-76
2022/12/24 06:10:57;;;;;;;22.13;3.88;;;;;;;;;;8269383;28;20025;-76
2022/12/24 06:14:57;;;;;;;20.60;3.63;;;;;;;;;;8279871;28;20068;-75
2022/12/24 06:18:57;;;;;;;21.95;3.28;;;;;;;;;;8271150;28;20038;-76
2022/12/24 06:22:58;;;;;;;22.67;3.60;;;;;;;;;;8272763;28;20022;-76
2022/12/24 06:26:58;;;;;;;17.90;4.27;;;;;;;;;;8271410;28;20697;-76
2022/12/24 06:31:00;;;;;;;23.25;3.08;;;;;;;;;;8263211;28;20044;-76
2022/12/24 06:35:00;;;;;;;19.30;3.58;;;;;;;;;;8264609;28;20053;-75
2022/12/24 06:39:00;;;;;;;14.93;3.13;;;;;;;;;;8267473;28;20029;-76
2022/12/24 06:43:00;;;;;;;21.52;3.85;;;;;;;;;;8267071;28;20995;-76
2022/12/24 06:47:00;;;;;;;19.90;3.47;;;;;;;;;;8267867;28;20030;-76
2022/12/24 06:51:02;;;;;;;22.67;3.65;;;;;;;;;;8270493;28;21815;-76
2022/12/24 06:55:03;;;;;;;16.40;2.85;;;;;;;;;;8266896;28;20026;-76
2022/12/24 06:59:03;;;;;;;20.45;4.00;;;;;;;;;;8277880;28;20679;-76
2022/12/24 07:03:04;;;;;;;24.50;3.35;;;;;;;;;;8270735;28;20040;-77
2022/12/24 07:07:04;;;;;;;22.40;3.47;;;;;;;;;;8268887;28;20080;-76
2022/12/24 07:11:04;;;;;;;20.73;3.43;;;;;;;;;;8270355;28;20276;-76
2022/12/24 07:15:05;;;;;;;22.57;3.87;;;;;;;;;;8268006;28;20454;-77
2022/12/24 07:19:05;;;;;;;25.48;4.00;;;;;;;;;;8268110;28;20041;-76
2022/12/24 07:23:05;;;;;;;20.20;3.67;;;;;;;;;;8268242;28;20023;-76
2022/12/24 07:27:05;;;;;;;20.77;3.58;;;;;;;;;;8286156;28;20037;-76
2022/12/24 07:31:06;;;;;;;19.23;3.65;;;;;;;;;;8267095;28;20458;-77
2022/12/24 07:35:06;;;;;;;25.83;3.85;;;;;;;;;;8274372;28;20071;-77
2022/12/24 07:39:06;;;;;;;20.85;3.67;;;;;;;;;;8265891;28;20026;-76
2022/12/24 07:43:06;;;;;;;21.15;4.53;;;;;;;;;;8265632;28;20030;-77
2022/12/24 07:47:07;;;;;;;22.48;3.53;;;;;;;;;;8265044;28;20103;-77
2022/12/24 07:51:07;;;;;;;25.88;4.07;;;;;;;;;;8263512;28;20075;-77
2022/12/24 07:55:08;;;;;;;27.48;4.25;;;;;;;;;;8265821;28;20033;-77
2022/12/24 07:59:10;;;;;;;29.23;4.10;;;;;;;;;;8265528;28;20112;-77
2022/12/24 08:03:18;;;;;;;25.10;4.03;;;;;;;;;;8264300;28;20033;-77
2022/12/24 08:07:18;;;;;;;22.35;3.40;;;;;;;;;;8262293;28;20026;-77
2022/12/24 08:11:19;;;;;;;24.67;3.83;;;;;;;;;;8265374;28;20151;-77
2022/12/24 08:15:19;;;;;;;23.20;3.25;;;;;;;;;;8264529;28;20268;-77
2022/12/24 08:19:19;;;;;;;23.45;3.70;;;;;;;;;;8262777;28;20196;-77
2022/12/24 08:23:19;;;;;;;23.67;4.35;;;;;;;;;;8265335;28;20856;-76
2022/12/24 08:27:19;;;;;;;22.85;4.05;;;;;;;;;;8262387;28;20036;-76
2022/12/24 08:31:20;;;;;;;24.33;3.90;;;;;;;;;;8263777;28;20136;-75
2022/12/24 08:35:20;;;;;;;26.33;4.45;;;;;;;;;;8262503;28;20272;-74
2022/12/24 08:39:20;;;;;;;22.63;3.87;;;;;;;;;;8263840;28;20036;-74
2022/12/24 08:43:21;;;;;;;19.77;3.70;;;;;;;;;;8262687;28;20376;-74
2022/12/24 08:47:21;;;;;;;26.48;4.93;;;;;;;;;;8259279;28;20041;-75
2022/12/24 08:51:21;;;;;;;20.80;3.97;;;;;;;;;;8264513;28;20033;-75
2022/12/24 08:55:22;;;;;;;28.30;4.47;;;;;;;;;;8262110;28;20043;-75
2022/12/24 08:59:22;;;;;;;21.17;3.72;;;;;;;;;;8263580;28;20288;-74
2022/12/24 09:03:22;;;;;;;25.30;4.05;;;;;;;;;;8263704;28;20037;-74
2022/12/24 09:07:23;;;;;;;22.30;4.60;;;;;;;;;;8263867;28;20045;-74
2022/12/24 09:11:23;;;;;;;20.08;3.42;;;;;;;;;;8263751;28;20284;-75
2022/12/24 09:15:24;;;;;;;25.77;5.05;;;;;;;;;;8261578;28;20077;-75
2022/12/24 09:19:24;;;;;;;20.93;3.60;;;;;;;;;;8263450;28;20566;-74
2022/12/24 09:23:24;;;;;;;21.85;3.90;;;;;;;;;;8262214;28;20284;-74
2022/12/24 09:27:25;;;;;;;22.05;3.85;;;;;;;;;;8262163;28;20029;-75
2022/12/24 09:31:25;;;;;;;20.40;3.87;;;;;;;;;;8260228;28;20038;-75
2022/12/24 09:35:25;;;;;;;25.08;4.03;;;;;;;;;;8262891;28;20455;-74
2022/12/24 09:39:26;;;;;;;23.43;3.90;;;;;;;;;;8260847;28;20084;-75
2022/12/24 09:43:28;;;;;;;20.27;3.63;;;;;;;;;;8261776;28;20277;-75
2022/12/24 09:47:42;;;;;;;17.52;3.47;;;;;;;;;;8267302;28;20034;-75
2022/12/24 09:51:44;;;;;;;18.25;3.42;;;;;;;;;;8266842;28;20021;-74
2022/12/24 09:55:46;;;;;;;15.50;3.13;;;;;;;;;;8266495;28;20558;-74
2022/12/24 09:59:46;;;;;;;23.13;4.13;;;;;;;;;;8266141;28;20441;-74
2022/12/24 10:03:47;;;;;;;25.33;4.45;;;;;;;;;;8267786;28;20038;-75
2022/12/24 10:07:52;;;;;;;23.25;4.03;;;;;;;;;;8265664;28;20030;-75
2022/12/24 10:11:52;;;;;;;25.55;4.97;;;;;;;;;;8270387;28;20046;-75
2022/12/24 10:16:09;;;;;;;19.73;3.92;;;;;;;;;;8266790;28;20064;-74
2022/12/24 10:20:24;;;;;;;22.25;4.07;;;;;;;;;;8269451;28;20021;-74
2022/12/24 10:24:30;;;;;;;26.60;4.53;;;;;;;;;;8266949;28;20308;-75
2022/12/24 10:28:36;;;;;;;24.60;4.45;;;;;;;;;;8268236;28;20037;-75
2022/12/24 10:32:37;;;;;;;20.58;3.38;;;;;;;;;;8266922;28;20682;-75
2022/12/24 10:36:37;;;;;;;28.65;4.18;;;;;;;;;;8265798;28;20538;-75
2022/12/24 10:40:45;;;;;;;14.93;3.58;;;;;;;;;;8267747;28;20172;-75
2022/12/24 10:44:48;;;;;;;20.65;4.30;;;;;;;;;;8266497;28;20029;-74
2022/12/24 10:48:58;;;;;;;20.65;4.30;;;;;;;;;;8267994;28;20140;-74
2022/12/24 10:53:03;;;;;;;20.90;3.78;;;;;;;;;;8268806;28;20465;-75
2022/12/24 10:57:04;;;;;;;21.88;3.85;;;;;;;;;;8266507;28;20049;-75
2022/12/24 11:01:04;;;;;;;21.02;3.47;;;;;;;;;;8267437;28;20048;-74
2022/12/24 11:05:06;;;;;;;19.57;4.07;;;;;;;;;;8267107;28;20117;-74
2022/12/24 11:09:19;;;;;;;15.45;3.00;;;;;;;;;;8264078;28;20091;-75
2022/12/24 11:13:22;;;;;;;22.80;3.65;;;;;;;;;;8265488;28;20683;-75
2022/12/24 11:17:23;;;;;;;22.03;4.07;;;;;;;;;;8265493;28;20037;-75
2022/12/24 11:21:30;;;;;;;19.42;3.90;;;;;;;;;;8265630;28;20934;-75
2022/12/24 11:25:32;;;;;;;19.38;3.80;;;;;;;;;;8264635;28;21335;-75
2022/12/24 11:29:32;;;;;;;20.73;3.85;;;;;;;;;;8267215;28;20025;-74
2022/12/24 11:33:45;;;;;;;21.60;3.53;;;;;;;;;;8265891;28;20084;-74
2022/12/24 11:37:45;;;;;;;24.45;4.15;;;;;;;;;;8264132;28;20479;-75
2022/12/24 11:41:46;;;;;;;14.30;3.42;;;;;;;;;;8262807;28;20226;-74
2022/12/24 11:45:50;;;;;;;24.33;4.43;;;;;;;;;;8277512;28;20531;-74
2022/12/24 11:49:50;;;;;;;25.58;4.68;;;;;;;;;;8266263;28;20021;-74
2022/12/24 11:54:00;;;;;;;26.25;4.82;;;;;;;;;;8262296;28;20894;-75
2022/12/24 11:58:20;;;;;;;23.77;5.47;;;;;;;;;;8260944;28;20037;-75
2022/12/24 12:02:28;;;;;;;20.70;3.92;;;;;;;;;;8253575;28;20038;-75
2022/12/24 12:06:36;;;;;;;21.10;3.58;;;;;;;;;;8263384;28;20140;-75
2022/12/24 12:10:37;;;;;;;25.55;4.30;;;;;;;;;;8269136;28;20018;-74
2022/12/24 12:14:47;;;;;;;23.35;4.50;;;;;;;;;;8259239;28;20208;-75
2022/12/24 12:18:51;;;;;;;20.38;3.80;;;;;;;;;;8262290;28;20692;-76
2022/12/24 12:23:10;;;;;;;19.88;4.20;;;;;;;;;;8263403;28;20300;-75
2022/12/24 12:27:16;;;;;;;22.02;4.03;;;;;;;;;;8261552;28;20026;-75
2022/12/24 12:31:33;;;;;;;18.38;3.67;;;;;;;;;;8262731;28;20072;-75
2022/12/24 12:35:35;;;;;;;19.65;3.58;;;;;;;;;;8260448;28;20057;-75
2022/12/24 12:39:36;;;;;;;15.80;3.17;;;;;;;;;;8263647;28;20037;-75
2022/12/24 12:43:58;;;;;;;20.13;3.70;;;;;;;;;;8263138;28;20096;-75
2022/12/24 12:48:04;;;;;;;12.35;3.28;;;;;;;;;;8264609;28;20907;-75
2022/12/24 12:52:23;;;;;;;16.00;3.28;;;;;;;;;;8265238;28;20061;-75
2022/12/24 12:56:28;;;;;;;11.18;2.75;;;;;;;;;;8261332;28;20048;-75
2022/12/24 13:00:33;;;;;;;16.35;3.10;;;;;;;;;;8262992;28;20076;-75
2022/12/24 13:04:59;;;;;;;10.93;3.20;;;;;;;;;;8271995;28;20511;-75
2022/12/24 13:09:18;;;;;;;12.98;2.75;;;;;;;;;;8246761;28;20140;-75
2022/12/24 13:13:37;;;;;;;12.48;2.88;;;;;;;;;;8262603;28;20032;-75
2022/12/24 13:17:41;;;;;;;9.27;2.47;;;;;;;;;;8262973;28;20141;-74
2022/12/24 13:21:42;;;;;;;13.98;3.15;;;;;;;;;;8269616;28;20116;-75
2022/12/24 13:25:44;;;;;;;13.05;3.08;;;;;;;;;;8270783;28;20750;-75
2022/12/24 13:29:51;;;;;;;17.55;3.97;;;;;;;;;;8271502;28;20064;-75
2022/12/24 13:33:53;;;;;;;15.85;3.80;;;;;;;;;;8268304;28;20124;-76
2022/12/24 13:37:53;;;;;;;18.38;4.13;;;;;;;;;;8269140;28;20036;-75
2022/12/24 13:41:53;;;;;;;17.80;3.50;;;;;;;;;;8267432;28;20036;-75
2022/12/24 13:45:53;;;;;;;15.02;3.25;;;;;;;;;;8267362;28;20382;-75
2022/12/24 13:49:54;;;;;;;11.43;3.10;;;;;;;;;;8270777;28;20021;-75
2022/12/24 13:53:58;;;;;;;14.05;2.90;;;;;;;;;;8268369;28;20036;-75
2022/12/24 13:58:02;;;;;;;13.38;3.13;;;;;;;;;;8267757;28;20029;-74
2022/12/24 14:02:03;;;;;;;11.95;3.13;;;;;;;;;;8269590;28;20049;-75
2022/12/24 14:06:08;;;;;;;6.35;2.60;;;;;;;;;;8266707;28;20034;-75
2022/12/24 14:10:18;;;;;;;8.98;2.75;;;;;;;;;;8267318;28;20021;-75
2022/12/24 14:14:26;;;;;;;10.05;2.67;;;;;;;;;;8267327;28;20032;-75
2022/12/24 14:18:27;;;;;;;13.38;2.60;;;;;;;;;;8270662;28;20044;-75
2022/12/24 14:22:29;;;;;;;10.88;2.70;;;;;;;;;;8268111;28;20065;-75
2022/12/24 14:26:32;;;;;;;12.30;3.03;;;;;;;;;;8266300;28;20034;-74
2022/12/24 14:30:32;;;;;;;9.18;2.65;;;;;;;;;;8268576;28;20038;-75
2022/12/24 14:34:32;;;;;;;11.57;3.27;;;;;;;;;;8267786;28;20018;-75
2022/12/24 14:38:33;;;;;;;13.18;3.75;;;;;;;;;;8268523;28;20018;-74
2022/12/24 14:42:52;;;;;;;10.10;2.90;;;;;;;;;;8268061;28;20079;-74
2022/12/24 14:46:55;;;;;;;9.13;2.58;;;;;;;;;;8267173;28;20042;-75
2022/12/24 14:50:58;;;;;;;8.88;2.47;;;;;;;;;;8269374;28;20498;-74
2022/12/24 14:54:58;;;;;;;7.88;2.50;;;;;;;;;;8266864;28;20049;-75
2022/12/24 14:59:03;;;;;;;15.55;3.20;;;;;;;;;;8267374;28;20057;-75
2022/12/24 15:03:10;;;;;;;9.13;2.70;;;;;;;;;;8266801;28;20068;-75
2022/12/24 15:07:11;;;;;;;14.43;3.03;;;;;;;;;;8267516;28;20427;-76
2022/12/24 15:11:15;;;;;;;11.25;3.25;;;;;;;;;;8264956;28;20041;-76
2022/12/24 15:15:16;;;;;;;9.57;2.75;;;;;;;;;;8266697;28;20132;-76
2022/12/24 15:19:21;;;;;;;11.07;2.75;;;;;;;;;;8265656;28;20068;-76
2022/12/24 15:23:25;;;;;;;8.50;2.75;;;;;;;;;;8267019;28;20029;-76
2022/12/24 15:27:26;;;;;;;12.93;3.20;;;;;;;;;;8266129;28;20021;-76
2022/12/24 15:31:27;;;;;;;12.38;2.85;;;;;;;;;;8268970;28;20030;-76
2022/12/24 15:35:48;;;;;;;13.57;2.85;;;;;;;;;;8269633;28;20076;-76
2022/12/24 15:40:09;;;;;;;10.27;2.70;;;;;;;;;;8268530;28;20034;-76
2022/12/24 15:44:12;;;;;;;14.48;2.75;;;;;;;;;;8267825;28;20037;-76
2022/12/24 15:48:19;;;;;;;16.53;3.07;;;;;;;;;;8270420;28;20111;-76
2022/12/24 15:52:23;;;;;;;9.50;2.50;;;;;;;;;;8269342;28;20324;-76
2022/12/24 15:56:30;;;;;;;18.73;3.60;;;;;;;;;;8268907;28;20092;-76
2022/12/24 16:00:31;;;;;;;16.92;3.03;;;;;;;;;;8272437;28;20049;-76
2022/12/24 16:04:31;;;;;;;13.32;2.83;;;;;;;;;;8268370;28;20026;-76
2022/12/24 16:08:37;;;;;;;11.67;2.90;;;;;;;;;;8271970;28;21006;-76
2022/12/24 16:12:37;;;;;;;14.40;3.03;;;;;;;;;;8270474;28;20280;-76
2022/12/24 16:16:42;;;;;;;12.05;2.90;;;;;;;;;;8284562;28;20860;-76
2022/12/24 16:20:47;;;;;;;13.68;2.63;;;;;;;;;;8277202;28;20100;-76
2022/12/24 16:24:47;;;;;;;11.55;2.90;;;;;;;;;;8268924;28;20018;-76
2022/12/24 16:28:48;;;;;;;15.48;3.20;;;;;;;;;;8269625;28;20728;-76
2022/12/24 16:32:49;;;;;;;13.77;3.20;;;;;;;;;;8271155;28;20032;-76
2022/12/24 16:36:49;;;;;;;11.40;3.28;;;;;;;;;;8268884;28;20053;-76
2022/12/24 16:40:50;;;;;;;12.57;2.92;;;;;;;;;;8267935;28;20950;-76
2022/12/24 16:44:51;;;;;;;11.18;3.08;;;;;;;;;;8268799;28;20052;-76
2022/12/24 16:48:51;;;;;;;8.63;2.40;;;;;;;;;;8269077;28;20042;-76
2022/12/24 16:52:51;;;;;;;14.15;2.67;;;;;;;;;;8269605;28;20036;-76
2022/12/24 16:56:51;;;;;;;10.75;2.58;;;;;;;;;;8265922;28;20490;-76
2022/12/24 17:00:52;;;;;;;12.90;2.53;;;;;;;;;;8265973;28;20998;-76
2022/12/24 17:04:53;;;;;;;13.93;2.97;;;;;;;;;;8267047;28;20029;-76
2022/12/24 17:08:53;;;;;;;12.15;2.55;;;;;;;;;;8269341;28;20553;-77
2022/12/24 17:12:54;;;;;;;10.70;2.70;;;;;;;;;;8268348;28;20763;-76
2022/12/24 17:16:54;;;;;;;18.23;2.80;;;;;;;;;;8268664;28;20026;-76
2022/12/24 17:21:02;;;;;;;16.73;3.30;;;;;;;;;;8270629;28;20061;-76
2022/12/24 17:25:03;;;;;;;10.30;2.80;;;;;;;;;;8271000;28;20036;-76
2022/12/24 17:29:04;;;;;;;11.90;2.78;;;;;;;;;;8269525;28;20105;-76
2022/12/24 17:33:04;;;;;;;13.98;3.13;;;;;;;;;;8268056;28;20065;-76
2022/12/24 17:37:04;;;;;;;14.05;2.60;;;;;;;;;;8268350;28;20041;-76
2022/12/24 17:41:06;;;;;;;14.68;3.25;;;;;;;;;;8268863;28;20235;-76
2022/12/24 17:45:06;;;;;;;13.57;3.17;;;;;;;;;;8267863;28;20545;-77
2022/12/24 17:49:06;;;;;;;17.33;2.60;;;;;;;;;;8277298;28;20018;-76
2022/12/24 17:53:06;;;;;;;17.13;3.75;;;;;;;;;;8270959;28;20067;-76
2022/12/24 17:57:07;;;;;;;15.95;3.00;;;;;;;;;;8276090;28;20466;-76
2022/12/24 18:01:20;;;;;;;11.57;2.55;;;;;;;;;;8268241;28;20045;-76
2022/12/24 18:05:20;;;;;;;13.90;2.88;;;;;;;;;;8266375;28;20779;-76
2022/12/24 18:09:20;;;;;;;12.18;2.60;;;;;;;;;;8274804;28;20026;-76
2022/12/24 18:13:21;;;;;;;15.57;3.03;;;;;;;;;;8273522;28;20568;-76
2022/12/24 18:17:22;;;;;;;17.20;2.53;;;;;;;;;;8274257;28;20077;-76
2022/12/24 18:21:23;;;;;;;12.48;2.65;;;;;;;;;;8277364;28;20033;-76
2022/12/24 18:25:23;;;;;;;13.50;2.85;;;;;;;;;;8274679;28;20687;-76
2022/12/24 18:29:23;;;;;;;14.07;2.73;;;;;;;;;;8273447;28;20025;-76
2022/12/24 18:33:24;;;;;;;24.42;3.40;;;;;;;;;;8274706;28;20366;-76
2022/12/24 18:37:24;;;;;;;10.23;2.58;;;;;;;;;;8282753;28;20025;-76
2022/12/24 18:41:26;;;;;;;16.67;2.85;;;;;;;;;;8274996;28;20152;-76
2022/12/24 18:45:26;;;;;;;15.65;2.63;;;;;;;;;;8274307;28;20125;-76
2022/12/24 18:49:26;;;;;;;20.05;3.05;;;;;;;;;;8273549;28;20056;-76
2022/12/24 18:53:26;;;;;;;13.02;3.17;;;;;;;;;;8273874;28;20072;-76
2022/12/24 18:57:26;;;;;;;13.68;2.78;;;;;;;;;;8271980;28;20640;-76
2022/12/24 19:01:28;;;;;;;13.88;3.08;;;;;;;;;;8272831;28;20066;-77
2022/12/24 19:05:29;;;;;;;21.75;3.63;;;;;;;;;;8274092;28;20044;-76
2022/12/24 19:09:29;;;;;;;20.17;3.00;;;;;;;;;;8272285;28;20140;-76
2022/12/24 19:13:29;;;;;;;18.17;3.47;;;;;;;;;;8286929;28;20032;-76
2022/12/24 19:17:29;;;;;;;22.75;3.30;;;;;;;;;;8269928;28;20038;-76
2022/12/24 19:21:30;;;;;;;14.87;3.03;;;;;;;;;;8272401;28;20362;-76
2022/12/24 19:25:31;;;;;;;18.08;3.35;;;;;;;;;;8273370;28;20273;-76
2022/12/24 19:29:31;;;;;;;21.52;3.10;;;;;;;;;;8271848;28;20717;-76
2022/12/24 19:34:01;;;;;;;15.55;3.30;;;;;;;;;;8280300;28;20044;-76
2022/12/24 19:38:02;;;;;;;16.00;2.80;;;;;;;;;;8255566;28;20045;-76
2022/12/24 19:42:02;;;;;;;19.58;3.08;;;;;;;;;;8272538;28;20032;-76
2022/12/24 19:46:03;;;;;;;11.32;2.50;;;;;;;;;;8287354;28;20030;-76
2022/12/24 19:50:03;;;;;;;18.95;2.97;;;;;;;;;;8281784;28;20047;-76
2022/12/24 19:54:04;;;;;;;19.63;3.15;;;;;;;;;;8270319;28;20582;-76
2022/12/24 19:58:05;;;;;;;15.20;2.80;;;;;;;;;;8270444;28;20037;-76
2022/12/24 20:02:05;;;;;;;18.38;3.40;;;;;;;;;;8271907;28;20044;-76
2022/12/24 20:06:07;;;;;;;11.50;2.47;;;;;;;;;;8270952;28;20676;-76
2022/12/24 20:10:07;;;;;;;15.68;3.45;;;;;;;;;;8271910;28;20638;-76
2022/12/24 20:14:10;;;;;;;11.63;2.33;;;;;;;;;;8271364;28;21068;-76
2022/12/24 20:18:11;;;;;;;15.10;3.20;;;;;;;;;;8272068;28;20040;-77
2022/12/24 20:22:11;;;;;;;14.55;4.50;;;;;;;;;;8271980;28;20025;-76
2022/12/24 20:26:13;;;;;;;14.98;3.80;;;;;;;;;;8270857;28;20763;-76
2022/12/24 20:30:13;;;;;;;15.73;3.65;;;;;;;;;;8271103;28;20084;-77
2022/12/24 20:34:13;;;;;;;15.25;3.67;;;;;;;;;;8269614;28;20030;-77
2022/12/24 20:38:14;;;;;;;18.33;2.90;;;;;;;;;;8269633;28;20032;-76
2022/12/24 20:42:14;;;;;;;14.45;3.00;;;;;;;;;;8278012;28;20115;-76
2022/12/24 20:46:18;;;;;;;13.80;2.92;;;;;;;;;;8271444;28;20506;-76
2022/12/24 20:50:20;;;;;;;12.75;2.75;;;;;;;;;;8270025;28;20121;-76
2022/12/24 20:54:20;;;;;;;13.27;2.65;;;;;;;;;;8269749;28;20994;-76
2022/12/24 20:58:20;;;;;;;12.52;2.67;;;;;;;;;;8272119;28;20122;-76
2022/12/24 21:02:21;;;;;;;12.88;2.50;;;;;;;;;;8269266;28;20045;-76
2022/12/24 21:06:21;;;;;;;12.52;2.60;;;;;;;;;;8270139;28;20037;-76
2022/12/24 21:10:22;;;;;;;10.30;2.63;;;;;;;;;;8271484;28;20565;-76
2022/12/24 21:14:24;;;;;;;10.43;2.65;;;;;;;;;;8270317;28;20022;-76
2022/12/24 21:18:25;;;;;;;11.80;3.47;;;;;;;;;;8271152;28;20040;-76
2022/12/24 21:22:25;;;;;;;19.42;3.60;;;;;;;;;;8284782;28;20136;-76
2022/12/24 21:26:25;;;;;;;15.20;3.67;;;;;;;;;;8270497;28;20025;-76
2022/12/24 21:30:25;;;;;;;16.23;3.45;;;;;;;;;;8268730;28;20915;-76
2022/12/24 21:34:25;;;;;;;15.15;3.83;;;;;;;;;;8269218;28;20030;-76
2022/12/24 21:38:26;;;;;;;11.35;3.33;;;;;;;;;;8270378;28;20022;-77
2022/12/24 21:42:26;;;;;;;19.63;3.43;;;;;;;;;;8271793;28;20037;-76
2022/12/24 21:46:26;;;;;;;11.15;3.40;;;;;;;;;;8276184;28;20307;-76
2022/12/24 21:54:45;;;;;;;14.02;3.53;;;;;;;;;;8274615;28;20988;-76
2022/12/24 21:58:48;;;;;;;15.00;4.90;;;;;;;;;;8276323;28;20723;-76
2022/12/24 22:02:49;;;;;;;11.95;3.40;;;;;;;;;;8275007;28;20041;-76
2022/12/24 22:15:41;;;;;;;12.52;3.65;;;;;;;;;;8275699;28;20624;-76
2022/12/24 22:19:42;;;;;;;10.20;3.30;;;;;;;;;;8274518;28;20566;-76
2022/12/24 22:23:42;;;;;;;15.30;4.10;;;;;;;;;;8274048;28;20022;-76
2022/12/24 22:27:42;;;;;;;15.13;4.40;;;;;;;;;;8275099;28;20056;-76
2022/12/24 22:31:42;;;;;;;14.30;4.28;;;;;;;;;;8272841;28;20099;-76
2022/12/24 22:35:43;;;;;;;17.52;4.47;;;;;;;;;;8273180;28;20018;-75
2022/12/24 22:39:43;;;;;;;15.57;4.00;;;;;;;;;;8270758;28;20026;-75
2022/12/24 22:43:43;;;;;;;13.90;3.83;;;;;;;;;;8273407;28;20100;-76
2022/12/24 22:47:43;;;;;;;13.45;4.15;;;;;;;;;;8281871;28;20083;-76
2022/12/24 22:51:44;;;;;;;12.30;3.70;;;;;;;;;;8271950;28;20030;-76
2022/12/24 22:55:44;;;;;;;14.15;3.92;;;;;;;;;;8275160;28;20030;-76
2022/12/24 22:59:44;;;;;;;11.90;4.30;;;;;;;;;;8275258;28;20135;-77
2022/12/24 23:03:44;;;;;;;12.65;3.85;;;;;;;;;;8272940;28;20030;-76
2022/12/24 23:07:44;;;;;;;13.52;3.85;;;;;;;;;;8272348;28;20029;-76
2022/12/24 23:11:44;;;;;;;14.48;4.50;;;;;;;;;;8271607;28;20026;-76
2022/12/24 23:15:45;;;;;;;13.07;4.30;;;;;;;;;;8272202;28;20044;-76
2022/12/24 23:19:45;;;;;;;12.55;3.55;;;;;;;;;;8286883;28;20114;-76
2022/12/24 23:23:45;;;;;;;12.27;3.87;;;;;;;;;;8273187;28;20017;-76
2022/12/24 23:27:45;;;;;;;18.80;4.43;;;;;;;;;;8272219;28;20273;-76
2022/12/24 23:31:46;;;;;;;17.20;4.50;;;;;;;;;;8271832;28;20368;-75
2022/12/24 23:35:46;;;;;;;18.55;4.35;;;;;;;;;;8270730;28;20140;-76
2022/12/24 23:39:46;;;;;;;10.73;3.87;;;;;;;;;;8271633;28;20095;-76
2022/12/24 23:43:46;;;;;;;14.80;3.73;;;;;;;;;;8272485;28;20030;-76
2022/12/24 23:47:47;;;;;;;10.85;3.92;;;;;;;;;;8271535;28;21112;-76
2022/12/24 23:51:47;;;;;;;13.40;4.43;;;;;;;;;;8272123;28;20033;-76
2022/12/24 23:55:47;;;;;;;11.90;4.40;;;;;;;;;;8276999;28;20144;-76
2022/12/24 23:59:47;;;;;;;6.97;3.40;;;;;;;;;;8274950;28;20045;-76
